sensor_id;sensor_type;location;lat;lon;timestamp;temperature;humidity
66610;DHT22;53468;48.276;14.416;2023-06-26T00:03:08;16.60;99.90
66610;DHT22;53468;48.276;14.416;2023-06-26T00:08:15;16.60;99.90
66610;DHT22;53468;48.276;14.416;2023-06-26T00:13:19;16.60;99.90
66610;DHT22;53468;48.276;14.416;2023-06-26T00:23:57;16.50;99.90
66610;DHT22;53468;48.276;14.416;2023-06-26T00:28:59;16.30;99.90
66610;DHT22;53468;48.276;14.416;2023-06-26T00:34:02;16.30;99.90
66610;DHT22;53468;48.276;14.416;2023-06-26T00:39:07;16.30;99.90
66610;DHT22;53468;48.276;14.416;2023-06-26T00:44:10;16.20;99.90
66610;DHT22;53468;48.276;14.416;2023-06-26T00:49:13;16.20;99.90
66610;DHT22;53468;48.276;14.416;2023-06-26T00:54:18;16.20;99.90
66610;DHT22;53468;48.276;14.416;2023-06-26T00:59:23;16.20;99.90
66610;DHT22;53468;48.276;14.416;2023-06-26T01:04:27;16.10;99.90
66610;DHT22;53468;48.276;14.416;2023-06-26T01:09:35;16.10;99.90
66610;DHT22;53468;48.276;14.416;2023-06-26T01:14:39;16.10;99.90
66610;DHT22;53468;48.276;14.416;2023-06-26T01:19:42;16.10;99.90
66610;DHT22;53468;48.276;14.416;2023-06-26T01:24:56;16.10;99.90
66610;DHT22;53468;48.276;14.416;2023-06-26T01:30:08;15.90;99.90
66610;DHT22;53468;48.276;14.416;2023-06-26T01:35:11;15.80;99.90
66610;DHT22;53468;48.276;14.416;2023-06-26T01:40:16;15.90;99.90
66610;DHT22;53468;48.276;14.416;2023-06-26T01:45:27;15.80;99.90
66610;DHT22;53468;48.276;14.416;2023-06-26T01:50:32;15.80;99.90
66610;DHT22;53468;48.276;14.416;2023-06-26T01:55:41;15.80;99.90
66610;DHT22;53468;48.276;14.416;2023-06-26T02:00:49;15.70;99.90
66610;DHT22;53468;48.276;14.416;2023-06-26T02:05:53;15.60;99.90
66610;DHT22;53468;48.276;14.416;2023-06-26T02:10:57;15.50;99.90
66610;DHT22;53468;48.276;14.416;2023-06-26T02:16:02;15.40;99.90
66610;DHT22;53468;48.276;14.416;2023-06-26T02:21:08;15.30;99.90
66610;DHT22;53468;48.276;14.416;2023-06-26T02:26:12;15.30;99.90
66610;DHT22;53468;48.276;14.416;2023-06-26T02:31:37;15.10;99.90
66610;DHT22;53468;48.276;14.416;2023-06-26T02:36:41;15.00;99.90
66610;DHT22;53468;48.276;14.416;2023-06-26T02:41:45;15.00;99.90
66610;DHT22;53468;48.276;14.416;2023-06-26T02:47:03;15.00;99.90
66610;DHT22;53468;48.276;14.416;2023-06-26T02:52:15;14.90;99.90
66610;DHT22;53468;48.276;14.416;2023-06-26T02:57:20;14.90;99.90
66610;DHT22;53468;48.276;14.416;2023-06-26T03:02:30;14.90;99.90
66610;DHT22;53468;48.276;14.416;2023-06-26T03:07:46;14.80;99.90
66610;DHT22;53468;48.276;14.416;2023-06-26T03:12:51;14.80;99.90
66610;DHT22;53468;48.276;14.416;2023-06-26T03:18:06;14.70;99.90
66610;DHT22;53468;48.276;14.416;2023-06-26T03:23:12;14.70;99.90
66610;DHT22;53468;48.276;14.416;2023-06-26T03:28:21;14.80;99.90
66610;DHT22;53468;48.276;14.416;2023-06-26T03:33:57;14.90;99.90
66610;DHT22;53468;48.276;14.416;2023-06-26T03:39:13;14.90;99.90
66610;DHT22;53468;48.276;14.416;2023-06-26T03:44:19;14.90;99.90
66610;DHT22;53468;48.276;14.416;2023-06-26T03:49:39;14.80;99.90
66610;DHT22;53468;48.276;14.416;2023-06-26T03:54:47;14.80;99.90
66610;DHT22;53468;48.276;14.416;2023-06-26T04:00:01;14.90;99.90
66610;DHT22;53468;48.276;14.416;2023-06-26T04:05:21;15.00;99.90
66610;DHT22;53468;48.276;14.416;2023-06-26T04:10:35;15.00;99.90
66610;DHT22;53468;48.276;14.416;2023-06-26T04:15:47;15.00;99.90
66610;DHT22;53468;48.276;14.416;2023-06-26T04:21:14;15.10;99.90
66610;DHT22;53468;48.276;14.416;2023-06-26T04:26:21;15.20;99.90
66610;DHT22;53468;48.276;14.416;2023-06-26T04:31:26;15.30;99.90
66610;DHT22;53468;48.276;14.416;2023-06-26T04:36:35;15.40;99.90
66610;DHT22;53468;48.276;14.416;2023-06-26T04:41:52;15.50;99.90
66610;DHT22;53468;48.276;14.416;2023-06-26T04:47:08;15.70;99.90
66610;DHT22;53468;48.276;14.416;2023-06-26T04:52:17;15.90;99.90
66610;DHT22;53468;48.276;14.416;2023-06-26T04:57:20;16.00;99.90
66610;DHT22;53468;48.276;14.416;2023-06-26T05:02:25;16.10;99.90
66610;DHT22;53468;48.276;14.416;2023-06-26T05:07:34;16.20;99.90
66610;DHT22;53468;48.276;14.416;2023-06-26T05:12:38;16.30;99.90
66610;DHT22;53468;48.276;14.416;2023-06-26T05:17:41;16.50;99.90
66610;DHT22;53468;48.276;14.416;2023-06-26T05:22:46;16.60;99.90
66610;DHT22;53468;48.276;14.416;2023-06-26T05:27:49;16.70;99.90
66610;DHT22;53468;48.276;14.416;2023-06-26T05:32:52;16.80;99.90
66610;DHT22;53468;48.276;14.416;2023-06-26T05:37:56;17.00;99.90
66610;DHT22;53468;48.276;14.416;2023-06-26T05:42:59;17.20;99.90
66610;DHT22;53468;48.276;14.416;2023-06-26T05:48:01;17.20;99.90
66610;DHT22;53468;48.276;14.416;2023-06-26T05:53:06;17.60;99.90
66610;DHT22;53468;48.276;14.416;2023-06-26T05:58:10;17.70;99.90
66610;DHT22;53468;48.276;14.416;2023-06-26T06:03:12;17.80;99.90
66610;DHT22;53468;48.276;14.416;2023-06-26T06:08:15;17.90;99.90
66610;DHT22;53468;48.276;14.416;2023-06-26T06:13:17;18.20;99.90
66610;DHT22;53468;48.276;14.416;2023-06-26T06:18:19;18.30;99.90
66610;DHT22;53468;48.276;14.416;2023-06-26T06:23:23;18.40;99.90
66610;DHT22;53468;48.276;14.416;2023-06-26T06:28:25;18.50;99.90
66610;DHT22;53468;48.276;14.416;2023-06-26T06:33:27;18.80;99.90
66610;DHT22;53468;48.276;14.416;2023-06-26T06:38:31;19.60;99.90
66610;DHT22;53468;48.276;14.416;2023-06-26T06:43:33;20.90;99.90
66610;DHT22;53468;48.276;14.416;2023-06-26T06:48:35;21.80;99.90
66610;DHT22;53468;48.276;14.416;2023-06-26T06:53:38;22.60;99.90
66610;DHT22;53468;48.276;14.416;2023-06-26T06:58:40;23.10;99.90
66610;DHT22;53468;48.276;14.416;2023-06-26T07:03:43;23.30;99.90
66610;DHT22;53468;48.276;14.416;2023-06-26T07:08:46;24.20;99.90
66610;DHT22;53468;48.276;14.416;2023-06-26T07:13:48;24.40;99.90
66610;DHT22;53468;48.276;14.416;2023-06-26T07:18:50;25.40;99.90
66610;DHT22;53468;48.276;14.416;2023-06-26T07:23:54;25.20;99.90
66610;DHT22;53468;48.276;14.416;2023-06-26T07:28:56;25.60;96.70
66610;DHT22;53468;48.276;14.416;2023-06-26T07:33:58;25.90;97.80
66610;DHT22;53468;48.276;14.416;2023-06-26T07:39:04;26.20;97.40
66610;DHT22;53468;48.276;14.416;2023-06-26T07:44:06;26.30;95.10
66610;DHT22;53468;48.276;14.416;2023-06-26T07:49:08;26.80;94.60
66610;DHT22;53468;48.276;14.416;2023-06-26T07:54:12;26.90;94.20
66610;DHT22;53468;48.276;14.416;2023-06-26T07:59:14;26.70;93.70
66610;DHT22;53468;48.276;14.416;2023-06-26T08:04:18;27.20;93.50
66610;DHT22;53468;48.276;14.416;2023-06-26T08:09:24;27.20;92.40
66610;DHT22;53468;48.276;14.416;2023-06-26T08:14:26;27.30;91.20
66610;DHT22;53468;48.276;14.416;2023-06-26T08:19:28;27.50;91.40
66610;DHT22;53468;48.276;14.416;2023-06-26T08:24:32;27.30;87.90
66610;DHT22;53468;48.276;14.416;2023-06-26T08:29:34;27.20;90.90
66610;DHT22;53468;48.276;14.416;2023-06-26T08:34:36;27.40;92.70
66610;DHT22;53468;48.276;14.416;2023-06-26T08:39:39;27.40;91.40
66610;DHT22;53468;48.276;14.416;2023-06-26T08:44:42;27.70;91.60
66610;DHT22;53468;48.276;14.416;2023-06-26T08:49:47;28.00;92.70
66610;DHT22;53468;48.276;14.416;2023-06-26T08:54:57;27.90;89.30
66610;DHT22;53468;48.276;14.416;2023-06-26T09:00:00;27.60;90.50
66610;DHT22;53468;48.276;14.416;2023-06-26T09:05:04;27.90;92.20
66610;DHT22;53468;48.276;14.416;2023-06-26T09:10:09;27.80;90.20
66610;DHT22;53468;48.276;14.416;2023-06-26T09:15:14;27.90;90.40
66610;DHT22;53468;48.276;14.416;2023-06-26T09:20:17;28.20;90.30
66610;DHT22;53468;48.276;14.416;2023-06-26T09:25:22;28.60;91.10
66610;DHT22;53468;48.276;14.416;2023-06-26T09:30:24;28.70;91.10
66610;DHT22;53468;48.276;14.416;2023-06-26T09:35:27;28.50;91.10
66610;DHT22;53468;48.276;14.416;2023-06-26T09:40:31;28.70;86.70
66610;DHT22;53468;48.276;14.416;2023-06-26T09:45:35;29.00;85.70
66610;DHT22;53468;48.276;14.416;2023-06-26T09:50:41;29.10;86.20
66610;DHT22;53468;48.276;14.416;2023-06-26T09:55:45;29.20;89.80
66610;DHT22;53468;48.276;14.416;2023-06-26T10:00:47;29.40;85.90
66610;DHT22;53468;48.276;14.416;2023-06-26T10:05:50;29.30;82.50
66610;DHT22;53468;48.276;14.416;2023-06-26T10:10:54;29.40;90.90
66610;DHT22;53468;48.276;14.416;2023-06-26T10:15:58;29.40;83.30
66610;DHT22;53468;48.276;14.416;2023-06-26T10:21:01;29.40;86.50
66610;DHT22;53468;48.276;14.416;2023-06-26T10:26:07;29.70;84.40
66610;DHT22;53468;48.276;14.416;2023-06-26T10:31:10;29.70;80.20
66610;DHT22;53468;48.276;14.416;2023-06-26T10:36:14;29.80;78.00
66610;DHT22;53468;48.276;14.416;2023-06-26T10:41:19;29.40;84.10
66610;DHT22;53468;48.276;14.416;2023-06-26T10:46:22;29.90;78.50
66610;DHT22;53468;48.276;14.416;2023-06-26T10:51:24;29.70;79.20
66610;DHT22;53468;48.276;14.416;2023-06-26T10:56:44;29.90;81.60
66610;DHT22;53468;48.276;14.416;2023-06-26T11:01:54;29.90;76.00
66610;DHT22;53468;48.276;14.416;2023-06-26T11:07:14;30.20;76.90
66610;DHT22;53468;48.276;14.416;2023-06-26T11:12:34;30.40;80.30
66610;DHT22;53468;48.276;14.416;2023-06-26T11:17:37;30.50;77.10
66610;DHT22;53468;48.276;14.416;2023-06-26T11:22:39;30.60;77.00
66610;DHT22;53468;48.276;14.416;2023-06-26T11:27:44;30.90;79.60
66610;DHT22;53468;48.276;14.416;2023-06-26T11:32:46;31.10;78.60
66610;DHT22;53468;48.276;14.416;2023-06-26T11:37:48;30.90;76.30
66610;DHT22;53468;48.276;14.416;2023-06-26T11:42:53;30.80;68.90
66610;DHT22;53468;48.276;14.416;2023-06-26T11:47:56;31.00;73.00
66610;DHT22;53468;48.276;14.416;2023-06-26T11:52:59;31.10;70.20
66610;DHT22;53468;48.276;14.416;2023-06-26T11:58:03;31.10;71.90
66610;DHT22;53468;48.276;14.416;2023-06-26T12:03:05;31.20;70.60
66610;DHT22;53468;48.276;14.416;2023-06-26T12:08:08;30.90;70.20
66610;DHT22;53468;48.276;14.416;2023-06-26T12:13:11;31.10;70.80
66610;DHT22;53468;48.276;14.416;2023-06-26T12:18:13;31.00;68.50
66610;DHT22;53468;48.276;14.416;2023-06-26T12:23:15;31.20;68.50
66610;DHT22;53468;48.276;14.416;2023-06-26T12:28:19;30.90;68.80
66610;DHT22;53468;48.276;14.416;2023-06-26T12:33:21;31.00;64.40
66610;DHT22;53468;48.276;14.416;2023-06-26T12:38:23;31.00;62.80
66610;DHT22;53468;48.276;14.416;2023-06-26T12:43:27;31.20;67.90
66610;DHT22;53468;48.276;14.416;2023-06-26T12:48:38;31.20;63.80
66610;DHT22;53468;48.276;14.416;2023-06-26T12:53:44;31.30;66.30
66610;DHT22;53468;48.276;14.416;2023-06-26T12:58:47;31.40;67.80
66610;DHT22;53468;48.276;14.416;2023-06-26T13:03:49;31.40;67.60
66610;DHT22;53468;48.276;14.416;2023-06-26T13:08:52;31.20;68.10
66610;DHT22;53468;48.276;14.416;2023-06-26T13:13:55;31.10;67.30
66610;DHT22;53468;48.276;14.416;2023-06-26T13:18:58;31.10;65.80
66610;DHT22;53468;48.276;14.416;2023-06-26T13:24:01;31.10;71.30
66610;DHT22;53468;48.276;14.416;2023-06-26T13:29:05;30.90;63.40
66610;DHT22;53468;48.276;14.416;2023-06-26T13:34:07;30.40;63.80
66610;DHT22;53468;48.276;14.416;2023-06-26T13:39:09;30.30;64.40
66610;DHT22;53468;48.276;14.416;2023-06-26T13:44:12;30.60;67.70
66610;DHT22;53468;48.276;14.416;2023-06-26T13:49:15;30.80;66.60
66610;DHT22;53468;48.276;14.416;2023-06-26T13:54:17;30.70;67.20
66610;DHT22;53468;48.276;14.416;2023-06-26T13:59:20;30.80;68.30
66610;DHT22;53468;48.276;14.416;2023-06-26T14:04:22;30.90;65.80
66610;DHT22;53468;48.276;14.416;2023-06-26T14:09:24;30.80;66.40
66610;DHT22;53468;48.276;14.416;2023-06-26T14:14:27;30.70;66.20
66610;DHT22;53468;48.276;14.416;2023-06-26T14:19:29;30.70;64.60
66610;DHT22;53468;48.276;14.416;2023-06-26T14:24:31;30.70;70.30
66610;DHT22;53468;48.276;14.416;2023-06-26T14:29:35;30.80;65.90
66610;DHT22;53468;48.276;14.416;2023-06-26T14:34:37;30.70;65.10
66610;DHT22;53468;48.276;14.416;2023-06-26T14:39:41;30.80;64.90
66610;DHT22;53468;48.276;14.416;2023-06-26T14:44:44;30.70;67.10
66610;DHT22;53468;48.276;14.416;2023-06-26T14:49:47;30.70;64.40
66610;DHT22;53468;48.276;14.416;2023-06-26T14:54:49;30.80;66.90
66610;DHT22;53468;48.276;14.416;2023-06-26T14:59:53;31.00;65.70
66610;DHT22;53468;48.276;14.416;2023-06-26T15:04:55;31.00;62.80
66610;DHT22;53468;48.276;14.416;2023-06-26T15:09:57;30.80;62.40
66610;DHT22;53468;48.276;14.416;2023-06-26T15:15:01;30.70;66.10
66610;DHT22;53468;48.276;14.416;2023-06-26T15:20:03;30.70;65.00
66610;DHT22;53468;48.276;14.416;2023-06-26T15:25:06;30.50;67.10
66610;DHT22;53468;48.276;14.416;2023-06-26T15:30:11;30.60;66.60
66610;DHT22;53468;48.276;14.416;2023-06-26T15:35:13;30.50;63.90
66610;DHT22;53468;48.276;14.416;2023-06-26T15:40:15;30.50;63.90
66610;DHT22;53468;48.276;14.416;2023-06-26T15:45:19;30.50;64.40
66610;DHT22;53468;48.276;14.416;2023-06-26T15:50:23;30.60;62.90
66610;DHT22;53468;48.276;14.416;2023-06-26T15:55:25;30.50;63.40
66610;DHT22;53468;48.276;14.416;2023-06-26T16:00:28;30.50;64.80
66610;DHT22;53468;48.276;14.416;2023-06-26T16:05:30;30.70;62.30
66610;DHT22;53468;48.276;14.416;2023-06-26T16:10:32;30.60;64.70
66610;DHT22;53468;48.276;14.416;2023-06-26T16:15:36;30.60;63.50
66610;DHT22;53468;48.276;14.416;2023-06-26T16:20:38;30.70;64.90
66610;DHT22;53468;48.276;14.416;2023-06-26T16:25:40;30.80;62.30
66610;DHT22;53468;48.276;14.416;2023-06-26T16:30:44;31.00;64.00
66610;DHT22;53468;48.276;14.416;2023-06-26T16:35:46;30.90;62.10
66610;DHT22;53468;48.276;14.416;2023-06-26T16:40:48;30.90;62.80
66610;DHT22;53468;48.276;14.416;2023-06-26T16:45:52;30.80;63.70
66610;DHT22;53468;48.276;14.416;2023-06-26T16:50:54;30.40;64.50
66610;DHT22;53468;48.276;14.416;2023-06-26T16:55:56;30.30;65.60
66610;DHT22;53468;48.276;14.416;2023-06-26T17:00:59;30.10;66.70
66610;DHT22;53468;48.276;14.416;2023-06-26T17:06:01;30.10;67.10
66610;DHT22;53468;48.276;14.416;2023-06-26T17:11:08;30.00;65.10
66610;DHT22;53468;48.276;14.416;2023-06-26T17:16:11;29.70;64.40
66610;DHT22;53468;48.276;14.416;2023-06-26T17:21:14;29.60;69.80
66610;DHT22;53468;48.276;14.416;2023-06-26T17:26:16;29.50;67.30
66610;DHT22;53468;48.276;14.416;2023-06-26T17:31:21;29.30;73.90
66610;DHT22;53468;48.276;14.416;2023-06-26T17:36:23;29.10;71.80
66610;DHT22;53468;48.276;14.416;2023-06-26T17:41:25;28.90;73.20
66610;DHT22;53468;48.276;14.416;2023-06-26T17:46:29;28.70;77.00
66610;DHT22;53468;48.276;14.416;2023-06-26T17:51:31;28.30;75.90
66610;DHT22;53468;48.276;14.416;2023-06-26T17:56:33;28.10;77.20
66610;DHT22;53468;48.276;14.416;2023-06-26T18:01:37;28.00;79.40
66610;DHT22;53468;48.276;14.416;2023-06-26T18:06:39;27.50;82.50
66610;DHT22;53468;48.276;14.416;2023-06-26T18:11:41;27.30;81.20
66610;DHT22;53468;48.276;14.416;2023-06-26T18:16:45;27.20;83.80
66610;DHT22;53468;48.276;14.416;2023-06-26T18:21:47;27.00;88.30
66610;DHT22;53468;48.276;14.416;2023-06-26T18:26:49;26.70;84.50
66610;DHT22;53468;48.276;14.416;2023-06-26T18:31:53;26.40;87.30
66610;DHT22;53468;48.276;14.416;2023-06-26T18:36:55;26.10;90.10
66610;DHT22;53468;48.276;14.416;2023-06-26T18:41:59;26.00;89.00
66610;DHT22;53468;48.276;14.416;2023-06-26T18:47:04;25.80;86.80
66610;DHT22;53468;48.276;14.416;2023-06-26T18:52:06;25.40;90.60
66610;DHT22;53468;48.276;14.416;2023-06-26T18:57:10;25.30;91.40
66610;DHT22;53468;48.276;14.416;2023-06-26T19:02:17;25.00;93.30
66610;DHT22;53468;48.276;14.416;2023-06-26T19:07:19;24.60;93.60
66610;DHT22;53468;48.276;14.416;2023-06-26T19:12:22;24.50;93.30
66610;DHT22;53468;48.276;14.416;2023-06-26T19:17:27;24.30;93.70
66610;DHT22;53468;48.276;14.416;2023-06-26T19:22:30;24.10;92.70
66610;DHT22;53468;48.276;14.416;2023-06-26T19:27:32;24.00;93.20
66610;DHT22;53468;48.276;14.416;2023-06-26T19:32:38;23.60;99.90
66610;DHT22;53468;48.276;14.416;2023-06-26T19:37:41;23.50;99.90
66610;DHT22;53468;48.276;14.416;2023-06-26T19:42:44;23.40;99.90
66610;DHT22;53468;48.276;14.416;2023-06-26T19:47:48;23.30;99.90
66610;DHT22;53468;48.276;14.416;2023-06-26T19:52:52;23.10;99.90
66610;DHT22;53468;48.276;14.416;2023-06-26T19:57:58;22.90;99.90
66610;DHT22;53468;48.276;14.416;2023-06-26T20:03:52;22.90;99.90
66610;DHT22;53468;48.276;14.416;2023-06-26T20:09:00;22.70;99.90
66610;DHT22;53468;48.276;14.416;2023-06-26T20:14:07;22.60;99.90
66610;DHT22;53468;48.276;14.416;2023-06-26T20:19:30;22.50;99.90
66610;DHT22;53468;48.276;14.416;2023-06-26T20:24:34;22.40;99.90
66610;DHT22;53468;48.276;14.416;2023-06-26T20:29:44;22.40;99.90
66610;DHT22;53468;48.276;14.416;2023-06-26T20:34:51;22.30;99.90
66610;DHT22;53468;48.276;14.416;2023-06-26T20:39:57;22.30;99.90
66610;DHT22;53468;48.276;14.416;2023-06-26T20:45:01;22.30;99.90
66610;DHT22;53468;48.276;14.416;2023-06-26T20:50:11;22.10;99.90
66610;DHT22;53468;48.276;14.416;2023-06-26T20:55:18;22.00;99.90
66610;DHT22;53468;48.276;14.416;2023-06-26T21:00:22;22.10;99.90
66610;DHT22;53468;48.276;14.416;2023-06-26T21:05:28;22.10;99.90
66610;DHT22;53468;48.276;14.416;2023-06-26T21:10:32;22.20;99.90
66610;DHT22;53468;48.276;14.416;2023-06-26T21:15:35;22.20;99.90
66610;DHT22;53468;48.276;14.416;2023-06-26T21:20:40;22.30;99.90
66610;DHT22;53468;48.276;14.416;2023-06-26T21:25:45;22.30;99.90
66610;DHT22;53468;48.276;14.416;2023-06-26T21:30:48;22.30;99.90
66610;DHT22;53468;48.276;14.416;2023-06-26T21:35:52;22.30;99.90
66610;DHT22;53468;48.276;14.416;2023-06-26T21:40:55;22.30;99.90
66610;DHT22;53468;48.276;14.416;2023-06-26T21:45:58;22.20;99.90
66610;DHT22;53468;48.276;14.416;2023-06-26T21:51:04;22.20;99.90
66610;DHT22;53468;48.276;14.416;2023-06-26T21:56:06;22.20;99.90
66610;DHT22;53468;48.276;14.416;2023-06-26T22:01:09;22.30;99.90
66610;DHT22;53468;48.276;14.416;2023-06-26T22:06:14;22.30;99.90
66610;DHT22;53468;48.276;14.416;2023-06-26T22:11:18;22.40;99.90
66610;DHT22;53468;48.276;14.416;2023-06-26T22:16:22;22.50;99.90
66610;DHT22;53468;48.276;14.416;2023-06-26T22:21:29;22.60;99.90
66610;DHT22;53468;48.276;14.416;2023-06-26T22:26:34;22.60;99.90
66610;DHT22;53468;48.276;14.416;2023-06-26T22:31:37;22.60;99.90
66610;DHT22;53468;48.276;14.416;2023-06-26T22:36:42;22.60;99.90
66610;DHT22;53468;48.276;14.416;2023-06-26T22:41:46;22.60;99.90
66610;DHT22;53468;48.276;14.416;2023-06-26T22:46:49;22.60;99.90
66610;DHT22;53468;48.276;14.416;2023-06-26T22:51:55;22.60;99.90
66610;DHT22;53468;48.276;14.416;2023-06-26T22:56:58;22.60;99.90
66610;DHT22;53468;48.276;14.416;2023-06-26T23:02:02;22.70;99.90
66610;DHT22;53468;48.276;14.416;2023-06-26T23:07:06;22.80;99.90
66610;DHT22;53468;48.276;14.416;2023-06-26T23:12:10;22.80;99.90
66610;DHT22;53468;48.276;14.416;2023-06-26T23:17:14;22.80;99.90
66610;DHT22;53468;48.276;14.416;2023-06-26T23:22:20;22.90;99.90
66610;DHT22;53468;48.276;14.416;2023-06-26T23:27:22;22.90;99.90
66610;DHT22;53468;48.276;14.416;2023-06-26T23:32:27;22.80;99.90
66610;DHT22;53468;48.276;14.416;2023-06-26T23:37:35;22.80;99.90
66610;DHT22;53468;48.276;14.416;2023-06-26T23:42:38;22.80;99.90
66610;DHT22;53468;48.276;14.416;2023-06-26T23:47:42;22.70;99.90
66610;DHT22;53468;48.276;14.416;2023-06-26T23:52:48;22.80;99.90
66610;DHT22;53468;48.276;14.416;2023-06-26T23:57:53;22.80;99.90
